createdAt,value
2023-04-18T00:01:23.998Z,1.63
2023-04-18T00:03:51.026Z,1.80
2023-04-18T00:06:17.904Z,2.10
2023-04-18T00:08:44.612Z,2.10
2023-04-18T00:11:11.244Z,2.10
2023-04-18T00:13:39.427Z,2.00
2023-04-18T00:16:07.862Z,1.77
2023-04-18T00:18:36.838Z,2.08
2023-04-18T00:21:04.405Z,1.90
2023-04-18T00:23:31.201Z,1.95
2023-04-18T00:25:57.826Z,1.55
2023-04-18T00:28:24.564Z,2.00
2023-04-18T00:30:51.264Z,3.17
2023-04-18T00:33:17.974Z,2.15
2023-04-18T00:35:44.604Z,1.55
2023-04-18T00:38:11.251Z,1.10
2023-04-18T00:40:38.846Z,1.48
2023-04-18T00:43:07.715Z,1.88
2023-04-18T00:45:34.449Z,1.38
2023-04-18T00:48:01.113Z,1.50
2023-04-18T00:50:27.753Z,1.42
2023-04-18T00:52:54.370Z,1.25
2023-04-18T00:55:20.982Z,1.00
2023-04-18T00:57:47.642Z,1.13
2023-04-18T01:00:15.207Z,1.40
2023-04-18T01:02:42.079Z,1.15
2023-04-18T01:05:09.002Z,2.40
2023-04-18T01:07:37.369Z,2.70
2023-04-18T01:10:04.413Z,1.50
2023-04-18T01:12:31.396Z,1.30
2023-04-18T01:14:58.905Z,1.48
2023-04-18T01:17:28.380Z,1.85
2023-04-18T01:19:55.062Z,3.17
2023-04-18T01:22:21.705Z,3.90
2023-04-18T01:24:48.359Z,2.95
2023-04-18T01:27:14.977Z,3.13
2023-04-18T01:29:41.632Z,7.68
2023-04-18T01:32:08.296Z,4.93
2023-04-18T01:34:34.972Z,3.25
2023-04-18T01:37:01.655Z,1.75
2023-04-18T01:39:28.644Z,1.55
2023-04-18T01:41:55.305Z,1.88
2023-04-18T01:44:22.045Z,2.67
2023-04-18T01:46:48.731Z,2.00
2023-04-18T01:49:16.086Z,1.67
2023-04-18T01:51:43.935Z,1.52
2023-04-18T01:54:10.626Z,2.38
2023-04-18T01:56:37.278Z,2.20
2023-04-18T01:59:03.952Z,4.60
2023-04-18T02:01:30.745Z,4.60
2023-04-18T02:03:57.631Z,3.55
2023-04-18T02:06:24.500Z,3.03
2023-04-18T02:08:51.158Z,4.13
2023-04-18T02:11:17.762Z,5.07
2023-04-18T02:13:44.418Z,4.70
2023-04-18T02:16:12.929Z,4.15
2023-04-18T02:18:40.252Z,4.50
2023-04-18T02:21:07.274Z,4.82
2023-04-18T02:23:33.886Z,4.18
2023-04-18T02:26:00.515Z,5.15
2023-04-18T02:28:27.164Z,5.63
2023-04-18T02:30:53.785Z,6.05
2023-04-18T02:33:20.470Z,4.15
2023-04-18T02:35:47.270Z,3.47
2023-04-18T02:38:13.943Z,3.80
2023-04-18T02:40:40.576Z,4.95
2023-04-18T02:43:07.280Z,5.60
2023-04-18T02:45:33.951Z,6.53
2023-04-18T02:48:01.271Z,6.50
2023-04-18T02:50:29.167Z,6.88
2023-04-18T02:52:56.194Z,6.32
2023-04-18T02:55:22.842Z,7.47
2023-04-18T02:57:49.654Z,7.35
2023-04-18T03:00:16.387Z,6.28
2023-04-18T03:02:43.174Z,6.53
2023-04-18T03:05:10.073Z,6.40
2023-04-18T03:07:36.803Z,5.82
2023-04-18T03:10:03.788Z,6.30
2023-04-18T03:12:30.671Z,4.72
2023-04-18T03:14:57.281Z,4.90
2023-04-18T03:17:23.941Z,5.63
2023-04-18T03:19:50.696Z,5.47
2023-04-18T03:22:17.750Z,6.30
2023-04-18T03:24:44.409Z,5.88
2023-04-18T03:27:11.630Z,4.78
2023-04-18T03:29:38.619Z,6.20
2023-04-18T03:32:05.361Z,5.70
2023-04-18T03:34:31.996Z,5.85
2023-04-18T03:36:58.702Z,6.38
2023-04-18T03:39:25.319Z,4.57
2023-04-18T03:41:52.623Z,3.83
2023-04-18T03:44:19.261Z,3.78
2023-04-18T03:46:45.937Z,3.72
2023-04-18T03:49:12.686Z,4.00
2023-04-18T03:51:47.987Z,3.55
2023-04-18T03:54:15.821Z,6.03
2023-04-18T03:56:42.745Z,7.30
2023-04-18T03:59:09.684Z,7.38
2023-04-18T04:01:36.438Z,6.68
2023-04-18T04:04:03.827Z,6.07
2023-04-18T04:06:32.181Z,7.63
2023-04-18T04:08:58.913Z,9.43
2023-04-18T04:11:25.996Z,13.85
2023-04-18T04:13:52.771Z,14.40
2023-04-18T04:16:19.493Z,14.00
2023-04-18T04:18:46.225Z,12.07
2023-04-18T04:21:12.948Z,12.55
2023-04-18T04:23:42.168Z,12.27
2023-04-18T04:26:09.255Z,11.82
2023-04-18T04:28:36.165Z,13.07
2023-04-18T04:31:03.520Z,13.43
2023-04-18T04:33:33.302Z,14.88
2023-04-18T04:36:01.269Z,15.45
2023-04-18T04:38:31.137Z,17.92
2023-04-18T04:40:58.347Z,16.77
2023-04-18T04:43:25.570Z,16.83
2023-04-18T04:45:53.268Z,17.45
2023-04-18T04:48:22.113Z,22.33
2023-04-18T04:50:52.928Z,19.30
2023-04-18T04:53:19.681Z,19.92
2023-04-18T04:55:46.360Z,22.30
2023-04-18T04:58:13.060Z,23.75
2023-04-18T05:00:39.704Z,23.20
2023-04-18T05:03:07.202Z,24.67
2023-04-18T05:05:33.969Z,25.58
2023-04-18T05:08:00.623Z,19.98
2023-04-18T05:10:27.259Z,16.88
2023-04-18T05:12:53.942Z,13.77
2023-04-18T05:15:20.780Z,13.70
2023-04-18T05:17:47.479Z,19.88
2023-04-18T05:20:14.262Z,19.60
2023-04-18T05:22:40.977Z,23.88
2023-04-18T05:25:08.335Z,19.58
2023-04-18T05:27:35.038Z,22.17
2023-04-18T05:30:01.696Z,18.67
2023-04-18T05:32:28.369Z,17.40
2023-04-18T05:34:55.103Z,13.45
2023-04-18T05:37:22.567Z,16.05
2023-04-18T05:39:49.204Z,28.42
2023-04-18T05:42:15.878Z,26.40
2023-04-18T05:44:42.542Z,25.73
2023-04-18T05:47:09.211Z,22.30
2023-04-18T05:49:36.034Z,20.25
2023-04-18T05:52:02.683Z,18.48
2023-04-18T05:54:29.329Z,18.02
2023-04-18T05:57:04.386Z,13.02
2023-04-18T06:01:58.038Z,11.73
2023-04-18T06:04:24.980Z,12.98
2023-04-18T06:06:51.873Z,13.32
2023-04-18T06:09:18.486Z,13.93
2023-04-18T06:11:45.228Z,13.35
2023-04-18T06:14:12.223Z,11.82
2023-04-18T06:16:39.201Z,11.63
2023-04-18T06:19:05.929Z,14.43
2023-04-18T06:21:32.680Z,12.75
2023-04-18T06:24:01.323Z,13.93
2023-04-18T06:26:28.042Z,15.55
2023-04-18T06:28:54.694Z,14.65
2023-04-18T06:31:21.477Z,15.20
2023-04-18T06:33:48.210Z,14.93
2023-04-18T06:36:14.896Z,17.15
2023-04-18T06:38:41.490Z,21.25
2023-04-18T06:41:08.172Z,21.77
2023-04-18T06:43:36.232Z,21.23
2023-04-18T06:46:04.674Z,22.38
2023-04-18T06:48:31.463Z,29.48
2023-04-18T06:50:58.112Z,42.65
2023-04-18T06:53:24.795Z,39.08
2023-04-18T06:55:51.663Z,21.15
2023-04-18T06:58:18.319Z,23.15
2023-04-18T07:00:47.666Z,25.73
2023-04-18T07:03:14.593Z,17.77
2023-04-18T07:05:41.329Z,18.70
2023-04-18T07:08:08.029Z,19.27
2023-04-18T07:10:34.704Z,11.82
2023-04-18T07:13:01.421Z,13.25
2023-04-18T07:15:28.183Z,13.40
2023-04-18T07:17:54.934Z,11.07
2023-04-18T07:20:21.794Z,15.27
2023-04-18T07:22:48.775Z,8.60
2023-04-18T07:25:15.547Z,12.20
2023-04-18T07:27:42.448Z,7.50
2023-04-18T07:30:09.582Z,14.20
2023-04-18T07:32:36.298Z,10.65
2023-04-18T07:35:03.463Z,11.93
2023-04-18T07:37:30.141Z,12.63
2023-04-18T07:39:56.805Z,20.55
2023-04-18T07:42:23.464Z,27.23
2023-04-18T07:44:50.150Z,13.35
2023-04-18T07:47:17.231Z,15.90
2023-04-18T07:49:43.874Z,9.40
2023-04-18T07:52:10.786Z,6.93
2023-04-18T07:54:37.470Z,6.95
2023-04-18T07:57:04.156Z,6.40
2023-04-18T07:59:32.265Z,6.70
2023-04-18T08:01:59.006Z,9.00
2023-04-18T08:04:28.207Z,6.07
2023-04-18T08:06:56.524Z,6.68
2023-04-18T08:09:23.242Z,6.75
2023-04-18T08:11:49.947Z,8.90
2023-04-18T08:14:16.625Z,6.15
2023-04-18T08:16:43.412Z,3.90
2023-04-18T08:19:10.146Z,4.28
2023-04-18T08:21:36.751Z,4.68
2023-04-18T08:24:03.417Z,4.55
2023-04-18T08:26:30.085Z,4.68
2023-04-18T08:28:56.807Z,4.45
2023-04-18T08:31:23.506Z,6.10
2023-04-18T08:33:50.281Z,12.88
2023-04-18T08:36:17.050Z,12.07
2023-04-18T08:38:43.703Z,10.43
2023-04-18T08:41:10.327Z,7.93
2023-04-18T08:43:37.767Z,7.70
2023-04-18T08:46:04.498Z,4.25
2023-04-18T08:48:31.502Z,4.43
2023-04-18T08:50:58.742Z,3.67
2023-04-18T08:53:26.761Z,3.80
2023-04-18T08:55:54.772Z,3.65
2023-04-18T08:58:25.647Z,3.83
2023-04-18T09:00:53.230Z,4.60
2023-04-18T09:03:37.626Z,5.72
2023-04-18T09:06:16.414Z,5.10
2023-04-18T09:08:46.456Z,3.25
2023-04-18T09:11:29.975Z,3.88
2023-04-18T09:13:58.899Z,3.80
2023-04-18T09:16:27.614Z,6.70
2023-04-18T09:19:14.448Z,3.03
2023-04-18T09:24:24.906Z,2.90
2023-04-18T09:26:53.836Z,3.10
2023-04-18T09:29:23.853Z,5.07
2023-04-18T09:32:01.153Z,4.65
2023-04-18T09:34:28.724Z,4.85
2023-04-18T09:37:11.691Z,3.78
2023-04-18T09:39:39.537Z,4.53
2023-04-18T09:42:06.338Z,5.25
2023-04-18T09:44:33.074Z,5.47
2023-04-18T09:47:00.507Z,5.10
2023-04-18T09:49:27.385Z,6.32
2023-04-18T09:51:54.936Z,5.00
2023-04-18T09:54:23.746Z,5.95
2023-04-18T09:56:51.764Z,7.05
2023-04-18T09:59:25.757Z,6.20
2023-04-18T10:01:52.421Z,6.55
2023-04-18T10:04:19.205Z,7.57
2023-04-18T10:06:45.989Z,12.23
2023-04-18T10:09:12.836Z,7.53
2023-04-18T10:11:39.631Z,6.22
2023-04-18T10:14:10.454Z,7.93
2023-04-18T10:16:37.503Z,6.30
2023-04-18T10:19:24.400Z,9.70
2023-04-18T10:21:53.953Z,7.97
2023-04-18T10:24:47.191Z,8.55
2023-04-18T10:27:14.015Z,7.97
2023-04-18T10:29:50.702Z,10.18
2023-04-18T10:32:18.812Z,9.82
2023-04-18T10:34:49.368Z,8.20
2023-04-18T10:37:16.062Z,7.13
2023-04-18T10:40:00.474Z,7.15
2023-04-18T10:42:45.700Z,7.28
2023-04-18T10:45:22.135Z,9.18
2023-04-18T10:47:49.084Z,9.98
2023-04-18T10:50:16.112Z,10.60
2023-04-18T10:52:43.488Z,9.65
2023-04-18T10:55:20.876Z,9.25
2023-04-18T10:57:48.466Z,10.07
2023-04-18T11:00:18.974Z,10.65
2023-04-18T11:03:00.403Z,10.48
2023-04-18T11:05:28.264Z,10.77
2023-04-18T11:07:55.064Z,10.10
2023-04-18T11:10:23.795Z,11.98
2023-04-18T11:15:22.262Z,12.52
2023-04-18T11:18:02.652Z,5.93
2023-04-18T11:20:30.284Z,9.55
2023-04-18T11:22:57.744Z,8.98
2023-04-18T11:25:32.101Z,8.55
2023-04-18T11:27:59.817Z,4.43
2023-04-18T11:30:26.586Z,8.77
2023-04-18T11:32:54.296Z,10.90
2023-04-18T11:35:21.032Z,8.43
2023-04-18T11:37:50.020Z,17.00
2023-04-18T11:40:16.745Z,17.55
2023-04-18T11:42:43.451Z,10.43
2023-04-18T11:45:12.334Z,7.88
2023-04-18T11:47:39.201Z,7.97
2023-04-18T11:50:06.943Z,3.92
2023-04-18T11:52:34.247Z,3.40
2023-04-18T11:55:13.095Z,4.22
2023-04-18T11:57:40.100Z,6.13
2023-04-18T12:00:08.725Z,8.82
2023-04-18T12:02:43.383Z,5.80
2023-04-18T12:07:42.753Z,11.43
2023-04-18T12:10:26.289Z,8.65
2023-04-18T12:12:54.592Z,6.70
2023-04-18T12:15:24.055Z,8.68
2023-04-18T12:17:53.530Z,8.13
2023-04-18T12:20:20.320Z,6.85
2023-04-18T12:22:49.663Z,5.28
2023-04-18T12:25:24.323Z,7.40
2023-04-18T12:28:04.180Z,9.27
2023-04-18T12:30:32.203Z,8.13
2023-04-18T12:33:00.224Z,25.70
2023-04-18T12:35:27.358Z,146.00
2023-04-18T12:37:55.769Z,9.45
2023-04-18T12:40:23.099Z,3.78
2023-04-18T12:42:50.622Z,3.95
2023-04-18T12:45:17.711Z,3.67
2023-04-18T12:47:45.846Z,4.53
2023-04-18T12:50:16.141Z,5.38
2023-04-18T12:52:42.846Z,5.00
2023-04-18T12:55:09.756Z,4.45
2023-04-18T12:57:36.572Z,5.20
2023-04-18T13:00:06.605Z,4.97
2023-04-18T13:02:35.388Z,4.13
2023-04-18T13:05:02.381Z,4.75
2023-04-18T13:07:29.210Z,6.78
2023-04-18T13:09:55.893Z,13.80
2023-04-18T13:12:22.580Z,18.02
2023-04-18T13:14:49.287Z,9.40
2023-04-18T13:17:15.961Z,8.85
2023-04-18T13:19:42.581Z,12.68
2023-04-18T13:22:09.348Z,5.50
2023-04-18T13:24:37.085Z,4.93
2023-04-18T13:27:10.272Z,6.43
2023-04-18T13:29:38.471Z,4.80
2023-04-18T13:32:06.191Z,1.15
2023-04-18T13:34:34.298Z,0.90
2023-04-18T13:37:01.398Z,1.15
2023-04-18T13:39:28.041Z,3.20
2023-04-18T13:41:55.077Z,4.20
2023-04-18T13:44:21.782Z,2.53
2023-04-18T13:46:48.968Z,4.40
2023-04-18T13:49:15.933Z,9.00
2023-04-18T13:51:42.740Z,7.65
2023-04-18T13:54:09.405Z,7.00
2023-04-18T13:56:36.137Z,11.13
2023-04-18T13:59:02.859Z,7.38
2023-04-18T14:01:29.596Z,4.72
2023-04-18T14:03:56.431Z,4.82
2023-04-18T14:06:23.449Z,3.25
2023-04-18T14:08:51.193Z,3.22
2023-04-18T14:11:17.890Z,2.75
2023-04-18T14:13:44.504Z,3.45
2023-04-18T14:16:11.189Z,4.60
2023-04-18T14:18:38.559Z,6.00
2023-04-18T14:21:05.273Z,8.77
2023-04-18T14:23:32.027Z,7.30
2023-04-18T14:25:58.630Z,7.95
2023-04-18T14:28:25.491Z,8.23
2023-04-18T14:30:52.220Z,11.25
2023-04-18T14:33:18.899Z,9.18
2023-04-18T14:35:45.989Z,12.32
2023-04-18T14:38:12.760Z,11.95
2023-04-18T14:40:39.537Z,8.05
2023-04-18T14:43:06.200Z,7.85
2023-04-18T14:45:34.019Z,8.68
2023-04-18T14:48:01.288Z,8.80
2023-04-18T14:50:28.022Z,6.97
2023-04-18T14:52:54.625Z,6.55
2023-04-18T14:55:21.309Z,6.80
2023-04-18T14:57:47.973Z,7.45
2023-04-18T15:00:15.608Z,6.43
2023-04-18T15:02:42.532Z,8.32
2023-04-18T15:05:10.268Z,7.88
2023-04-18T15:07:38.006Z,7.82
2023-04-18T15:10:05.352Z,6.13
2023-04-18T15:12:32.507Z,6.20
2023-04-18T15:15:02.179Z,13.45
2023-04-18T15:17:29.364Z,69.35
2023-04-18T15:19:56.062Z,84.65
2023-04-18T15:22:22.915Z,27.55
2023-04-18T15:24:49.704Z,17.25
2023-04-18T15:27:16.380Z,15.70
2023-04-18T15:29:43.082Z,16.92
2023-04-18T15:32:10.298Z,33.58
2023-04-18T15:34:37.115Z,20.75
2023-04-18T15:37:04.598Z,25.33
2023-04-18T15:39:31.464Z,13.55
2023-04-18T15:41:58.075Z,16.35
2023-04-18T15:44:24.766Z,18.45
2023-04-18T15:46:51.845Z,17.88
2023-04-18T15:49:18.520Z,20.48
2023-04-18T15:51:45.140Z,27.65
2023-04-18T15:54:12.045Z,39.63
2023-04-18T15:56:39.120Z,36.33
2023-04-18T15:59:06.215Z,18.08
2023-04-18T16:01:33.410Z,23.85
2023-04-18T16:04:00.390Z,34.10
2023-04-18T16:06:27.456Z,26.02
2023-04-18T16:08:54.238Z,17.92
2023-04-18T16:11:21.886Z,17.25
2023-04-18T16:13:48.593Z,16.42
2023-04-18T16:16:15.358Z,18.65
2023-04-18T16:18:42.045Z,15.73
2023-04-18T16:21:08.764Z,20.05
2023-04-18T16:23:35.381Z,24.17
2023-04-18T16:26:02.028Z,23.98
2023-04-18T16:28:30.031Z,45.80
2023-04-18T16:30:56.773Z,22.10
2023-04-18T16:33:26.097Z,32.17
2023-04-18T16:35:53.130Z,22.35
2023-04-18T16:38:23.517Z,23.40
2023-04-18T16:40:50.216Z,22.20
2023-04-18T16:43:16.868Z,31.48
2023-04-18T16:45:43.616Z,15.07
2023-04-18T16:48:10.357Z,11.75
2023-04-18T16:50:37.121Z,11.00
2023-04-18T16:53:03.793Z,13.50
2023-04-18T16:55:30.517Z,17.38
2023-04-18T16:57:57.182Z,19.55
2023-04-18T17:00:23.914Z,16.92
2023-04-18T17:02:50.958Z,13.13
2023-04-18T17:05:18.752Z,15.32
2023-04-18T17:07:46.084Z,15.00
2023-04-18T17:10:12.814Z,17.88
2023-04-18T17:12:39.494Z,17.63
2023-04-18T17:15:07.060Z,16.00
2023-04-18T17:17:34.802Z,15.18
2023-04-18T17:20:01.560Z,17.63
2023-04-18T17:22:29.287Z,18.40
2023-04-18T17:24:56.030Z,16.70
2023-04-18T17:27:22.798Z,11.23
2023-04-18T17:29:49.922Z,10.02
2023-04-18T17:32:16.588Z,12.23
2023-04-18T17:34:43.307Z,12.43
2023-04-18T17:37:11.145Z,12.23
2023-04-18T17:39:37.809Z,12.52
2023-04-18T17:42:04.445Z,12.20
2023-04-18T17:44:31.128Z,10.35
2023-04-18T17:46:57.774Z,8.48
2023-04-18T17:49:24.499Z,8.40
2023-04-18T17:51:51.209Z,7.68
2023-04-18T17:54:17.832Z,7.13
2023-04-18T17:56:45.514Z,8.35
2023-04-18T17:59:12.594Z,10.52
2023-04-18T18:01:39.707Z,11.60
2023-04-18T18:04:06.474Z,12.80
2023-04-18T18:06:33.178Z,11.68
2023-04-18T18:08:59.829Z,12.07
2023-04-18T18:11:27.780Z,13.65
2023-04-18T18:13:55.672Z,18.45
2023-04-18T18:16:23.914Z,16.30
2023-04-18T18:18:51.082Z,15.23
2023-04-18T18:21:18.112Z,16.05
2023-04-18T18:23:44.720Z,16.77
2023-04-18T18:26:11.925Z,15.70
2023-04-18T18:28:38.703Z,17.70
2023-04-18T18:31:05.523Z,18.23
2023-04-18T18:33:32.150Z,28.77
2023-04-18T18:35:59.579Z,27.90
2023-04-18T18:38:26.364Z,22.30
2023-04-18T18:40:53.133Z,16.50
2023-04-18T18:43:19.886Z,15.55
2023-04-18T18:45:46.623Z,17.33
2023-04-18T18:48:14.764Z,16.23
2023-04-18T18:50:41.982Z,17.58
2023-04-18T18:53:08.624Z,19.52
2023-04-18T18:55:35.303Z,19.30
2023-04-18T18:58:02.589Z,22.63
2023-04-18T19:00:29.308Z,20.55
2023-04-18T19:02:56.081Z,19.00
2023-04-18T19:05:22.858Z,21.98
2023-04-18T19:07:51.427Z,22.45
2023-04-18T19:10:18.141Z,20.83
2023-04-18T19:12:44.843Z,26.70
2023-04-18T19:15:11.921Z,18.98
2023-04-18T19:17:38.656Z,17.55
2023-04-18T19:20:05.991Z,17.60
2023-04-18T19:22:32.680Z,18.17
2023-04-18T19:25:00.696Z,17.60
2023-04-18T19:27:27.356Z,20.58
2023-04-18T19:29:54.079Z,20.33
2023-04-18T19:32:20.998Z,43.42
2023-04-18T19:34:47.712Z,38.35
2023-04-18T19:37:14.389Z,31.65
2023-04-18T19:39:41.025Z,24.15
2023-04-18T19:42:08.534Z,19.42
2023-04-18T19:44:35.298Z,19.92
2023-04-18T19:47:01.938Z,15.23
2023-04-18T19:49:28.645Z,14.07
2023-04-18T19:51:55.321Z,13.77
2023-04-18T19:54:22.277Z,14.02
2023-04-18T19:56:48.970Z,22.80
2023-04-18T19:59:16.011Z,18.08
2023-04-18T20:01:42.993Z,15.38
2023-04-18T20:04:09.930Z,14.07
2023-04-18T20:06:36.753Z,14.43
2023-04-18T20:09:04.155Z,16.55
2023-04-18T20:11:30.777Z,17.60
2023-04-18T20:13:57.420Z,15.25
2023-04-18T20:16:24.070Z,16.70
2023-04-18T20:18:52.295Z,15.73
2023-04-18T20:21:20.170Z,14.55
2023-04-18T20:23:46.891Z,14.70
2023-04-18T20:26:13.596Z,14.98
2023-04-18T20:28:40.267Z,10.32
2023-04-18T20:31:07.233Z,14.05
2023-04-18T20:33:34.383Z,14.70
2023-04-18T20:36:01.009Z,13.90
2023-04-18T20:38:29.716Z,18.08
2023-04-18T20:40:58.836Z,17.50
2023-04-18T20:43:25.879Z,18.80
2023-04-18T20:45:53.846Z,20.30
2023-04-18T20:48:21.003Z,19.05
2023-04-18T20:50:51.436Z,27.40
2023-04-18T20:53:21.792Z,29.70
2023-04-18T20:55:48.694Z,29.67
2023-04-18T20:58:15.865Z,23.80
2023-04-18T21:00:43.715Z,25.65
2023-04-18T21:03:13.001Z,23.55
2023-04-18T21:05:39.777Z,20.88
2023-04-18T21:08:06.459Z,22.25
2023-04-18T21:10:33.207Z,21.25
2023-04-18T21:13:00.080Z,11.07
2023-04-18T21:15:26.810Z,9.07
2023-04-18T21:17:53.505Z,10.48
2023-04-18T21:20:20.308Z,13.25
2023-04-18T21:22:46.983Z,11.07
2023-04-18T21:25:14.105Z,10.02
2023-04-18T21:27:40.849Z,13.63
2023-04-18T21:30:08.114Z,4.95
2023-04-18T21:32:34.851Z,3.88
2023-04-18T21:35:01.750Z,5.75
2023-04-18T21:37:29.009Z,6.80
2023-04-18T21:39:55.760Z,5.53
2023-04-18T21:42:22.403Z,4.45
2023-04-18T21:44:49.107Z,3.00
2023-04-18T21:47:15.864Z,3.30
2023-04-18T21:49:42.805Z,5.00
2023-04-18T21:52:09.600Z,5.63
2023-04-18T21:54:36.256Z,10.07
2023-04-18T21:57:02.945Z,2.80
2023-04-18T21:59:29.973Z,1.70
2023-04-18T22:01:56.688Z,2.00
2023-04-18T22:04:26.190Z,3.72
2023-04-18T22:06:56.978Z,4.00
2023-04-18T22:09:23.587Z,4.13
2023-04-18T22:11:51.855Z,2.85
2023-04-18T22:14:20.091Z,5.00
2023-04-18T22:16:46.785Z,4.10
2023-04-18T22:19:14.150Z,4.50
2023-04-18T22:21:40.896Z,4.55
2023-04-18T22:24:08.211Z,4.55
2023-04-18T22:26:34.851Z,4.72
2023-04-18T22:29:01.573Z,3.70
2023-04-18T22:31:28.333Z,3.08
2023-04-18T22:33:55.043Z,2.42
2023-04-18T22:36:21.749Z,2.55
2023-04-18T22:38:48.345Z,6.43
2023-04-18T22:41:14.968Z,4.45
2023-04-18T22:43:41.658Z,3.53
2023-04-18T22:46:08.356Z,3.42
2023-04-18T22:48:35.310Z,4.38
2023-04-18T22:51:02.000Z,4.03
2023-04-18T22:53:28.681Z,5.75
2023-04-18T22:55:55.380Z,6.75
2023-04-18T22:58:22.055Z,5.63
2023-04-18T23:00:48.715Z,6.63
2023-04-18T23:03:15.433Z,3.97
2023-04-18T23:05:42.221Z,2.65
2023-04-18T23:08:08.901Z,2.28
2023-04-18T23:10:35.670Z,2.60
2023-04-18T23:13:02.403Z,1.30
2023-04-18T23:15:29.059Z,1.30
2023-04-18T23:17:55.738Z,4.85
2023-04-18T23:20:23.989Z,7.60
2023-04-18T23:22:51.800Z,6.85
2023-04-18T23:25:19.574Z,8.23
2023-04-18T23:27:46.941Z,7.13
2023-04-18T23:30:13.565Z,6.25
2023-04-18T23:32:40.293Z,6.70
2023-04-18T23:35:07.167Z,7.00
2023-04-18T23:37:33.822Z,2.60
2023-04-18T23:40:00.562Z,2.70
2023-04-18T23:42:27.520Z,3.53
2023-04-18T23:44:54.668Z,4.85
2023-04-18T23:47:21.996Z,3.63
2023-04-18T23:49:48.842Z,4.03
2023-04-18T23:52:15.566Z,7.35
2023-04-18T23:54:42.254Z,6.55
2023-04-18T23:57:08.885Z,5.57
2023-04-18T23:59:36.539Z,4.47
